Aden, Yemen
Current Conditions -  °F | °C
As of 10:00 PM on Thursday 23 Oct 2014 (Local Time) from OYAA Reporting Station
Few Clouds Few Clouds  
Wind Chill: 82°   Ceiling: Unl
Heat Index: 82°   Visibility: 6mi
Dew Point: 59°   Wind: 9mph
Humidity: 45%   Direction: 110°ESE
Pressure: 29.94"   Gusts: NA
Location:  12.79°N, 45.03°E
Report Text: OYAA 231900Z 11008KT 9999 FEW040 28/15 Q1014
Loading
Personal Weather Stations






























Interactive Weather Map
Tropical Storm Tracking
New forecast layout! Learn more

10-Day Weather Forecast

Advertisements
Track Severe Weather on mobile